Airfield :
LOGIN :

Register | Disclaimer

   EN    FR    IT 

 










Legend :    VFR   Marginal VFR   IFR   Intensive IFR   Very Intensive IFR
Visi :
Ceiling :
>= 8 km
>= 3000ft
5 to 8 km
1000 to 3000 ft
1500m to 5 km
500 to 1000 ft
800 to 1500m
200 to 500 ft
< 800m
< 200 ft
Symbols :   Thunderstorms  Fog  Heavy snow  Heavy precipitations  Wind > 20 kt
SIGMETs :     Misc.  Thunderstorms  Icing  Turbulence  Mountain Waves  Volcanic Ashes






- Airport Elevation : 33 ft
- IATA code : MHZ


EGUN - RAF Mildenhall

CURRENT METAR :
  • 151756Z 16005KT 9999 CLR 11/11 A2965 RMK AO2A SLP044 T01090109 10145 20109 53006 $

EXPIRED METARs :
  • 151656Z 16003KT 9999 CLR 13/13 A2964 RMK AO2A SLP040 T01330125 $
  • 151556Z 00000KT 9999 FEW021 FEW029 SCT034 14/12 A2963 RMK AO2A SLP037 T01400122 $

TAF AMD TAF EGUN
Valid from the 15 at 15:00 until the 16 at 18:00 UTC


1515/1618 25009KT 9999 BKN020 QNH2962INS
BECMG 1603/1604 17012G20KT 9999 BKN015 QNH2992INS
BECMG 1605/1606 16010G20KT 9000 -RA OVC015 QNH2996INS
BECMG 1608/1609 17012G20KT 9999 NSW OVC007 QNH3004INS
BECMG 1609/1610 27012G20KT 9999 BKN015 QNH3006INS
TEMPO 1610/1613 BKN020
BECMG 1612/1613 24006KT 9999 BKN050 QNH3006INS TX14/1515Z TN09/1608Z



MET'MAP, your aeronautical weather chart ! - Copyright ORBIFLY December 2007 - Disclaimer

ORBIFLY MET'MAP TEAM :

Programming & Development : Alexandra Zaïnal
Concept & Development : Baudouin d'Aumeries
Co-Development & Prog : Marc-Olivier Méhu
Technical & hardware support : Manuel Goepfert

Contact : metmap@orbifly.com




SOURCES & CREDITS :

   NOAA